Wednesday, January 17, 2018, 4:36 PM EST
Back to Local

KMVL, Morrisville Stowe State Airport

Location: Morrisville, VT, United States Lat: 44.533
Local Time: 4:36 PM EST (21:36 GMT) Lon: -72.617
Time Zone: US/Eastern Elev: 731 ft

Show me the last for .
Show Decoded

2018-01-17 16:16 METAR KMVL 172116Z AUTO 04005KT 2SM -SN BR M05/M06 A3013 RMK AO2 P0000 T10501061
                 $ =
2018-01-17 16:08 METAR KMVL 172108Z AUTO 03005KT 1 3/4SM -SN BR M04/M06 A3013 RMK AO2 P0000
                 T10441061 $ =
2018-01-17 15:54 METAR KMVL 172054Z AUTO 02006KT 1 1/2SM -SN BR OVC021 M04/M06 A3014 RMK AO2
                 SLP219 P0000 60001 T10441056 58010 =
2018-01-17 15:33 METAR KMVL 172033Z AUTO 02006KT 1 1/4SM -SN BR OVC022 M04/M05 A3015 RMK AO2
                 P0000 T10391050 =
2018-01-17 15:06 METAR KMVL 172006Z AUTO 01003KT 2SM -SN BR BKN027 OVC038 M04/M06 A3015 RMK AO2
                 P0000 T10391056 =
2018-01-17 14:54 METAR KMVL 171954Z AUTO 00000KT 1 3/4SM -SN BR OVC025 M03/M05 A3015 RMK AO2
                 SLP222 P0001 T10331050 =
2018-01-17 14:39 METAR KMVL 171939Z AUTO 00000KT 1 1/2SM -SN BR OVC021 M04/M05 A3015 RMK AO2
                 P0001 T10391050 =
2018-01-17 14:30 METAR KMVL 171930Z AUTO 01003KT 1SM -SN BR VV020 M04/M05 A3016 RMK AO2 P0001
                 T10391050 =
2018-01-17 14:23 METAR KMVL 171923Z AUTO 00000KT 1 1/4SM -SN BR OVC021 M04/M05 A3016 RMK AO2
                 P0001 T10391050 =
2018-01-17 14:10 METAR KMVL 171910Z AUTO 00000KT 1SM -SN BR BKN021 OVC027 M03/M05 A3016 RMK AO2
                 P0000 T10331050 =
2018-01-17 13:54 METAR KMVL 171854Z AUTO 00000KT 1 1/2SM -SN BR BKN025 OVC034 M03/M05 A3017 RMK
                 AO2 SLP228 P0000 T10331050 =
2018-01-17 13:39 METAR KMVL 171839Z AUTO 00000KT 1 1/4SM -SN BR BKN025 OVC035 M03/M05 A3017 RMK
                 AO2 P0000 T10331050 =
2018-01-17 13:13 METAR KMVL 171813Z AUTO 00000KT 1 1/2SM -SN BR OVC034 M04/M06 A3018 RMK AO2
                 P0000 T10391056 =
2018-01-17 12:54 METAR KMVL 171754Z AUTO 00000KT 2SM -SN BR SCT026 OVC036 M04/M06 A3019 RMK AO2
                 SLP236 P0000 60000 T10391056 11039 21078 58036 =
2018-01-17 12:25 METAR KMVL 171725Z AUTO 00000KT 1 3/4SM -SN BR BKN028 BKN034 OVC050 M04/M06
                 A3021 RMK AO2 P0000 T10391056 =
2018-01-17 11:54 METAR KMVL 171654Z AUTO 00000KT 3SM -SN BR BKN031 OVC042 M04/M06 A3023 RMK AO2
                 SNE1555B38 SLP250 P0000 T10441056 =
2018-01-17 11:46 METAR KMVL 171646Z AUTO 35003KT 2 1/2SM -SN BR BKN031 OVC042 M04/M06 A3023 RMK
                 AO2 SNE1555B38 P0000 T10441061 =
2018-01-17 10:54 METAR KMVL 171554Z AUTO 18003KT 5SM -SN BR OVC028 M05/M06 A3029 RMK AO2 SNB44
                 SLP270 P0000 T10501061 =
2018-01-17 09:54 METAR KMVL 171454Z AUTO 35003KT 7SM OVC023 M06/M07 A3030 RMK AO2 SLP274
                 T10611072 58005 =
2018-01-17 09:13 METAR KMVL 171413Z AUTO 35003KT 8SM M07/M08 A3030 RMK AO2 T10671078 $ =
2018-01-17 08:54 METAR KMVL 171354Z AUTO 00000KT 8SM OVC026 M07/M08 A3031 RMK AO2 SLP277
                 T10721083 =
2018-01-17 08:21 METAR KMVL 171321Z AUTO 00000KT 3SM BR SCT013 OVC027 M07/M08 A3031 RMK AO2
                 T10721078 =
2018-01-17 08:07 METAR KMVL 171307Z AUTO 00000KT 7SM BKN014 OVC026 M08/M08 A3031 RMK AO2
                 T10781083 =
2018-01-17 07:54 METAR KMVL 171254Z AUTO 00000KT 5SM BR SCT015 OVC026 M08/M09 A3031 RMK AO2
                 SLP279 T10781089 =
2018-01-17 06:54 METAR KMVL 171154Z AUTO 00000KT 8SM FEW015 OVC028 M09/M10 A3031 RMK AO2 SNE03
                 SLP280 P0000 60000 7//// I6000 T10941100 11061 21094 58005 =
2018-01-17 06:47 METAR KMVL 171147Z AUTO 00000KT 9SM SCT015 OVC030 M09/M09 A3031 RMK AO2 SNE03
                 P0000 T10891094 =
2018-01-17 06:10 METAR KMVL 171110Z AUTO 00000KT 6SM BR BKN014 BKN028 OVC100 M08/M09 A3032 RMK
                 AO2 SNE03 P0000 T10831089 =
2018-01-17 05:54 METAR KMVL 171054Z AUTO 00000KT 4SM -SN BR SCT037 OVC100 M08/M08 A3033 RMK AO2
                 SNB31 SLP284 P0000 I1000 T10781083 =
2018-01-17 05:06 METAR KMVL 171006Z AUTO 36004KT 6SM BR FEW007 BKN065 OVC110 M08/M09 A3032 RMK
                 AO2 T10831089 =
2018-01-17 04:54 METAR KMVL 170954Z AUTO 00000KT 6SM BR FEW049 SCT070 OVC110 M08/M09 A3032 RMK
                 AO2 SNB03E26 SLP282 P0000 T10781089 =
2018-01-17 03:54 METAR KMVL 170854Z AUTO 00000KT 5SM BR OVC065 M07/M08 A3033 RMK AO2 SLP284 60000
                 T10721078 58006 =
2018-01-17 02:54 METAR KMVL 170754Z AUTO 00000KT 7SM OVC070 M07/M08 A3034 RMK AO2 SNE23 SLP288
                 P0000 T10671078 =
2018-01-17 01:54 METAR KMVL 170654Z AUTO 00000KT 4SM -SN BR OVC043 M07/M07 A3034 RMK AO2 SLP289
                 P0000 T10671072 =
2018-01-17 00:54 METAR KMVL 170554Z AUTO 00000KT 3SM -SN BR OVC050 M06/M07 A3035 RMK AO2 SLP290
                 P0000 60001 T10611067 11056 21061 58008 =
2018-01-17 00:06 METAR KMVL 170506Z AUTO 18003KT 3SM -SN BR OVC035 M06/M06 A3036 RMK AO2 P0000
                 T10611061 =
2018-01-16 23:54 METAR KMVL 170454Z AUTO 18003KT 2 1/2SM -SN BR OVC031 M06/M06 A3036 RMK AO2
                 SLP294 P0001 T10561061 410391144 =
2018-01-16 22:54 METAR KMVL 170354Z AUTO 18003KT 2 1/2SM -SN BR OVC032 M06/M07 A3036 RMK AO2
                 SLP297 P0000 T10611067 =
2018-01-16 22:14 METAR KMVL 170314Z AUTO 00000KT 2 1/2SM -SN BR OVC030 M06/M07 A3037 RMK AO2
                 P0000 T10611067 =
2018-01-16 21:54 METAR KMVL 170254Z AUTO 00000KT 3SM -SN BR OVC038 M06/M07 A3037 RMK AO2 SNB06
                 SLP300 P0000 60000 T10611067 56004 =
2018-01-16 20:54 METAR KMVL 170154Z AUTO 00000KT 5SM BR OVC050 M06/M07 A3037 RMK AO2 SNB03E47
                 SLP300 P0000 T10561067 =
2018-01-16 19:54 METAR KMVL 170054Z AUTO 00000KT 7SM OVC050 M06/M07 A3038 RMK AO2 SNE43 SLP302
                 P0000 T10561067 =
2018-01-16 18:54 METAR KMVL 162354Z AUTO 00000KT 6SM -SN BR OVC050 M06/M06 A3038 RMK AO2 SNB01
                 SLP304 P0000 60000 T10561061 11039 21056 53002 =
2018-01-16 18:17 METAR KMVL 162317Z AUTO 00000KT 6SM -SN BR SCT028 OVC049 M06/M07 A3038 RMK AO2
                 SNB01 P0000 T10561067 =
2018-01-16 17:54 METAR KMVL 162254Z AUTO 00000KT 10SM OVC026 M06/M07 A3038 RMK AO2 SLP304
                 T10561067 =
2018-01-16 16:54 METAR KMVL 162154Z AUTO 00000KT 10SM SCT016 OVC024 M05/M07 A3038 RMK AO2
                 SNE19B36E45 SLP302 P0000 T10501072 =

Support USWX by starting your Amazon purchase here.